sensor_id;sensor_type;location;lat;lon;timestamp;pressure;altitude;pressure_sealevel;temperature;humidity
54453;BME280;40363;52.270;10.546;2022-12-18T00:01:44;80133.06;;;-147.06;88.34
54453;BME280;40363;52.270;10.546;2022-12-18T00:04:14;80124.84;;;-147.06;88.30
54453;BME280;40363;52.270;10.546;2022-12-18T00:06:42;80124.84;;;-147.06;88.16
54453;BME280;40363;52.270;10.546;2022-12-18T00:09:09;80124.84;;;-147.06;88.26
54453;BME280;40363;52.270;10.546;2022-12-18T00:11:36;80114.56;;;-147.06;87.59
54453;BME280;40363;52.270;10.546;2022-12-18T00:14:02;80124.84;;;-147.06;87.29
54453;BME280;40363;52.270;10.546;2022-12-18T00:16:29;80112.50;;;-147.06;87.00
54453;BME280;40363;52.270;10.546;2022-12-18T00:18:58;80118.66;;;-147.06;86.83
54453;BME280;40363;52.270;10.546;2022-12-18T00:21:25;80108.38;;;-147.06;86.72
54453;BME280;40363;52.270;10.546;2022-12-18T00:23:53;80096.03;;;-147.06;86.59
54453;BME280;40363;52.270;10.546;2022-12-18T00:26:20;80102.22;;;-147.06;85.89
54453;BME280;40363;52.270;10.546;2022-12-18T00:28:47;80108.38;;;-147.06;86.21
54453;BME280;40363;52.270;10.546;2022-12-18T00:31:14;80116.63;;;-147.06;86.02
54453;BME280;40363;52.270;10.546;2022-12-18T00:33:41;80122.78;;;-147.06;86.24
54453;BME280;40363;52.270;10.546;2022-12-18T00:36:09;80124.84;;;-147.06;86.29
54453;BME280;40363;52.270;10.546;2022-12-18T00:38:35;80133.06;;;-147.06;86.50
54453;BME280;40363;52.270;10.546;2022-12-18T00:41:03;80139.25;;;-147.06;86.15
54453;BME280;40363;52.270;10.546;2022-12-18T00:43:30;80151.59;;;-147.06;86.44
54453;BME280;40363;52.270;10.546;2022-12-18T00:45:58;80168.03;;;-147.06;86.96
54453;BME280;40363;52.270;10.546;2022-12-18T00:48:24;80170.09;;;-147.06;87.15
54453;BME280;40363;52.270;10.546;2022-12-18T00:50:52;80170.09;;;-147.06;87.00
54453;BME280;40363;52.270;10.546;2022-12-18T00:53:18;80170.09;;;-147.06;86.71
54453;BME280;40363;52.270;10.546;2022-12-18T00:55:45;80155.69;;;-147.06;86.22
54453;BME280;40363;52.270;10.546;2022-12-18T00:58:13;80163.94;;;-147.06;86.41
54453;BME280;40363;52.270;10.546;2022-12-18T01:00:40;80163.94;;;-147.06;86.29
54453;BME280;40363;52.270;10.546;2022-12-18T01:03:07;80153.66;;;-147.06;85.97
54453;BME280;40363;52.270;10.546;2022-12-18T01:05:33;80157.75;;;-147.06;85.84
54453;BME280;40363;52.270;10.546;2022-12-18T01:08:00;80166.00;;;-147.06;85.87
54453;BME280;40363;52.270;10.546;2022-12-18T01:10:26;80161.88;;;-147.06;85.86
54453;BME280;40363;52.270;10.546;2022-12-18T01:12:52;80157.75;;;-147.06;85.44
54453;BME280;40363;52.270;10.546;2022-12-18T01:15:20;80161.88;;;-147.06;84.65
54453;BME280;40363;52.270;10.546;2022-12-18T01:17:47;80147.47;;;-147.06;84.40
54453;BME280;40363;52.270;10.546;2022-12-18T01:20:13;80157.75;;;-147.06;84.78
54453;BME280;40363;52.270;10.546;2022-12-18T01:22:40;80170.09;;;-147.06;85.07
54453;BME280;40363;52.270;10.546;2022-12-18T01:25:06;80153.66;;;-147.06;85.32
54453;BME280;40363;52.270;10.546;2022-12-18T01:27:33;80141.31;;;-147.06;85.17
54453;BME280;40363;52.270;10.546;2022-12-18T01:29:59;80161.88;;;-147.06;84.65
54453;BME280;40363;52.270;10.546;2022-12-18T01:32:28;80182.44;;;-147.06;84.96
54453;BME280;40363;52.270;10.546;2022-12-18T01:34:55;80184.50;;;-147.06;85.12
54453;BME280;40363;52.270;10.546;2022-12-18T01:37:21;80211.25;;;-147.06;85.03
54453;BME280;40363;52.270;10.546;2022-12-18T01:39:48;80203.03;;;-147.06;84.78
54453;BME280;40363;52.270;10.546;2022-12-18T01:42:15;80211.25;;;-147.06;84.89
54453;BME280;40363;52.270;10.546;2022-12-18T01:44:53;80215.38;;;-147.06;84.82
54453;BME280;40363;52.270;10.546;2022-12-18T01:47:21;80211.25;;;-147.06;84.98
54453;BME280;40363;52.270;10.546;2022-12-18T01:49:50;80221.53;;;-147.06;84.88
54453;BME280;40363;52.270;10.546;2022-12-18T01:52:17;80254.44;;;-147.06;85.50
54453;BME280;40363;52.270;10.546;2022-12-18T01:54:43;80279.13;;;-147.06;86.08
54453;BME280;40363;52.270;10.546;2022-12-18T01:57:10;80268.84;;;-147.06;86.14
54453;BME280;40363;52.270;10.546;2022-12-18T01:59:37;80266.78;;;-147.06;85.69
54453;BME280;40363;52.270;10.546;2022-12-18T02:02:04;80299.72;;;-147.06;85.67
54453;BME280;40363;52.270;10.546;2022-12-18T02:04:32;80324.41;;;-147.06;86.78
54453;BME280;40363;52.270;10.546;2022-12-18T02:07:01;80334.69;;;-147.06;87.25
54453;BME280;40363;52.270;10.546;2022-12-18T02:09:33;80314.13;;;-147.06;87.36
54453;BME280;40363;52.270;10.546;2022-12-18T02:12:04;80320.28;;;-147.06;87.54
54453;BME280;40363;52.270;10.546;2022-12-18T02:14:33;80303.81;;;-147.06;87.13
54453;BME280;40363;52.270;10.546;2022-12-18T02:17:03;80312.06;;;-147.06;87.02
54453;BME280;40363;52.270;10.546;2022-12-18T02:19:37;80310.00;;;-147.06;87.03
54453;BME280;40363;52.270;10.546;2022-12-18T02:22:10;80312.06;;;-147.06;87.33
54453;BME280;40363;52.270;10.546;2022-12-18T02:24:40;80318.22;;;-147.06;86.86
54453;BME280;40363;52.270;10.546;2022-12-18T02:27:12;80307.94;;;-147.06;86.58
54453;BME280;40363;52.270;10.546;2022-12-18T02:29:40;80312.06;;;-147.06;86.10
54453;BME280;40363;52.270;10.546;2022-12-18T02:32:09;80322.34;;;-147.06;86.30
54453;BME280;40363;52.270;10.546;2022-12-18T02:34:38;80318.22;;;-147.06;86.38
54453;BME280;40363;52.270;10.546;2022-12-18T02:37:05;80328.50;;;-147.06;86.44
54453;BME280;40363;52.270;10.546;2022-12-18T02:39:33;80322.34;;;-147.06;86.19
54453;BME280;40363;52.270;10.546;2022-12-18T02:41:59;80328.50;;;-147.06;85.85
54453;BME280;40363;52.270;10.546;2022-12-18T02:44:28;80347.03;;;-147.06;86.45
54453;BME280;40363;52.270;10.546;2022-12-18T02:46:55;80338.81;;;-147.06;86.53
54453;BME280;40363;52.270;10.546;2022-12-18T02:49:24;80347.03;;;-147.06;86.44
54453;BME280;40363;52.270;10.546;2022-12-18T02:51:52;80351.16;;;-147.06;86.96
54453;BME280;40363;52.270;10.546;2022-12-18T02:54:22;80349.09;;;-147.06;87.03
54453;BME280;40363;52.270;10.546;2022-12-18T02:56:53;80347.03;;;-147.06;86.85
54453;BME280;40363;52.270;10.546;2022-12-18T02:59:21;80367.59;;;-147.06;87.23
54453;BME280;40363;52.270;10.546;2022-12-18T03:01:57;80324.41;;;-147.06;86.88
54453;BME280;40363;52.270;10.546;2022-12-18T03:04:25;80332.63;;;-147.06;86.51
54453;BME280;40363;52.270;10.546;2022-12-18T03:06:53;80342.91;;;-147.06;86.85
54453;BME280;40363;52.270;10.546;2022-12-18T03:09:21;80340.84;;;-147.06;86.65
54453;BME280;40363;52.270;10.546;2022-12-18T03:11:48;80330.56;;;-147.06;86.65
54453;BME280;40363;52.270;10.546;2022-12-18T03:14:34;80314.13;;;-147.06;86.53
54453;BME280;40363;52.270;10.546;2022-12-18T03:17:05;80303.81;;;-147.06;86.28
54453;BME280;40363;52.270;10.546;2022-12-18T03:19:33;80316.16;;;-147.06;86.56
54453;BME280;40363;52.270;10.546;2022-12-18T03:22:02;80316.16;;;-147.06;85.89
54453;BME280;40363;52.270;10.546;2022-12-18T03:24:29;80310.00;;;-147.06;85.74
54453;BME280;40363;52.270;10.546;2022-12-18T03:26:58;80307.94;;;-147.06;86.09
54453;BME280;40363;52.270;10.546;2022-12-18T03:29:27;80322.34;;;-147.06;86.11
54453;BME280;40363;52.270;10.546;2022-12-18T03:31:56;80326.47;;;-147.06;86.36
54453;BME280;40363;52.270;10.546;2022-12-18T03:34:26;80324.41;;;-147.06;86.42
54453;BME280;40363;52.270;10.546;2022-12-18T03:36:55;80322.34;;;-147.06;86.60
54453;BME280;40363;52.270;10.546;2022-12-18T03:39:21;80297.66;;;-147.06;86.16
54453;BME280;40363;52.270;10.546;2022-12-18T03:41:52;80289.44;;;-147.06;86.30
54453;BME280;40363;52.270;10.546;2022-12-18T03:44:25;80268.84;;;-147.06;85.84
54453;BME280;40363;52.270;10.546;2022-12-18T03:46:55;80277.09;;;-147.06;85.51
54453;BME280;40363;52.270;10.546;2022-12-18T03:49:26;80277.09;;;-147.06;85.36
54453;BME280;40363;52.270;10.546;2022-12-18T03:51:57;80285.31;;;-147.06;85.59
54453;BME280;40363;52.270;10.546;2022-12-18T03:54:27;80248.28;;;-147.06;85.29
54453;BME280;40363;52.270;10.546;2022-12-18T03:56:56;80254.44;;;-147.06;84.77
54453;BME280;40363;52.270;10.546;2022-12-18T03:59:23;80277.09;;;-147.06;84.95
54453;BME280;40363;52.270;10.546;2022-12-18T04:01:52;80277.09;;;-147.06;85.13
54453;BME280;40363;52.270;10.546;2022-12-18T04:04:19;80270.91;;;-147.06;85.05
54453;BME280;40363;52.270;10.546;2022-12-18T04:06:47;80281.19;;;-147.06;85.25
54453;BME280;40363;52.270;10.546;2022-12-18T04:09:15;80279.13;;;-147.06;85.27
54453;BME280;40363;52.270;10.546;2022-12-18T04:11:42;80293.53;;;-147.06;85.58
54453;BME280;40363;52.270;10.546;2022-12-18T04:14:09;80285.31;;;-147.06;85.49
54453;BME280;40363;52.270;10.546;2022-12-18T04:16:36;80293.53;;;-147.06;85.49
54453;BME280;40363;52.270;10.546;2022-12-18T04:19:02;80293.53;;;-147.06;85.56
54453;BME280;40363;52.270;10.546;2022-12-18T04:21:28;80285.31;;;-147.06;85.24
54453;BME280;40363;52.270;10.546;2022-12-18T04:23:56;80283.25;;;-147.06;85.28
54453;BME280;40363;52.270;10.546;2022-12-18T04:26:23;80279.13;;;-147.06;85.05
54453;BME280;40363;52.270;10.546;2022-12-18T04:28:49;80277.09;;;-147.06;84.64
54453;BME280;40363;52.270;10.546;2022-12-18T04:31:15;80285.31;;;-147.06;84.35
54453;BME280;40363;52.270;10.546;2022-12-18T04:33:42;80293.53;;;-147.06;84.58
54453;BME280;40363;52.270;10.546;2022-12-18T04:36:08;80307.94;;;-147.06;84.50
54453;BME280;40363;52.270;10.546;2022-12-18T04:38:35;80326.47;;;-147.06;84.93
54453;BME280;40363;52.270;10.546;2022-12-18T04:41:02;80334.69;;;-147.06;85.02
54453;BME280;40363;52.270;10.546;2022-12-18T04:43:29;80353.19;;;-147.06;85.31
54453;BME280;40363;52.270;10.546;2022-12-18T04:46:00;80359.38;;;-147.06;85.63
54453;BME280;40363;52.270;10.546;2022-12-18T04:48:27;80342.91;;;-147.06;85.38
54453;BME280;40363;52.270;10.546;2022-12-18T04:50:53;80342.91;;;-147.06;85.18
54453;BME280;40363;52.270;10.546;2022-12-18T04:53:20;80363.50;;;-147.06;85.16
54453;BME280;40363;52.270;10.546;2022-12-18T04:55:46;80377.88;;;-147.06;85.30
54453;BME280;40363;52.270;10.546;2022-12-18T04:58:14;80388.19;;;-147.06;85.51
54453;BME280;40363;52.270;10.546;2022-12-18T05:00:40;80398.47;;;-147.06;85.77
54453;BME280;40363;52.270;10.546;2022-12-18T05:03:07;80404.63;;;-147.06;85.92
54453;BME280;40363;52.270;10.546;2022-12-18T05:05:34;80396.41;;;-147.06;86.17
54453;BME280;40363;52.270;10.546;2022-12-18T05:08:00;80375.84;;;-147.06;86.15
54453;BME280;40363;52.270;10.546;2022-12-18T05:10:26;80363.50;;;-147.06;85.82
54453;BME280;40363;52.270;10.546;2022-12-18T05:12:53;80369.66;;;-147.06;86.12
54453;BME280;40363;52.270;10.546;2022-12-18T05:15:27;80363.50;;;-147.06;86.07
54453;BME280;40363;52.270;10.546;2022-12-18T05:17:54;80365.56;;;-147.06;86.35
54453;BME280;40363;52.270;10.546;2022-12-18T05:20:20;80355.25;;;-147.06;85.87
54453;BME280;40363;52.270;10.546;2022-12-18T05:22:46;80349.09;;;-147.06;85.46
54453;BME280;40363;52.270;10.546;2022-12-18T05:25:13;80365.56;;;-147.06;85.98
54453;BME280;40363;52.270;10.546;2022-12-18T05:27:40;80347.03;;;-147.06;85.33
54453;BME280;40363;52.270;10.546;2022-12-18T05:30:07;80351.16;;;-147.06;85.45
54453;BME280;40363;52.270;10.546;2022-12-18T05:32:34;80351.16;;;-147.06;85.57
54453;BME280;40363;52.270;10.546;2022-12-18T05:35:01;80332.63;;;-147.06;85.49
54453;BME280;40363;52.270;10.546;2022-12-18T05:37:27;80334.69;;;-147.06;85.49
54453;BME280;40363;52.270;10.546;2022-12-18T05:39:54;80334.69;;;-147.06;85.62
54453;BME280;40363;52.270;10.546;2022-12-18T05:42:20;80324.41;;;-147.06;85.18
54453;BME280;40363;52.270;10.546;2022-12-18T05:44:46;80328.50;;;-147.06;84.70
54453;BME280;40363;52.270;10.546;2022-12-18T05:47:13;80326.47;;;-147.06;84.75
54453;BME280;40363;52.270;10.546;2022-12-18T05:49:41;80332.63;;;-147.06;84.97
54453;BME280;40363;52.270;10.546;2022-12-18T05:52:07;80322.34;;;-147.06;84.63
54453;BME280;40363;52.270;10.546;2022-12-18T05:54:34;80318.22;;;-147.06;84.33
54453;BME280;40363;52.270;10.546;2022-12-18T05:57:01;80318.22;;;-147.06;84.26
54453;BME280;40363;52.270;10.546;2022-12-18T05:59:27;80336.75;;;-147.06;84.50
54453;BME280;40363;52.270;10.546;2022-12-18T06:01:54;80322.34;;;-147.06;84.18
54453;BME280;40363;52.270;10.546;2022-12-18T06:04:20;80334.69;;;-147.06;83.95
54453;BME280;40363;52.270;10.546;2022-12-18T06:06:48;80328.50;;;-147.06;83.88
54453;BME280;40363;52.270;10.546;2022-12-18T06:09:14;80355.25;;;-147.06;83.55
54453;BME280;40363;52.270;10.546;2022-12-18T06:11:40;80355.25;;;-147.06;83.43
54453;BME280;40363;52.270;10.546;2022-12-18T06:14:07;80353.19;;;-147.06;83.39
54453;BME280;40363;52.270;10.546;2022-12-18T06:16:33;80371.72;;;-147.06;84.35
54453;BME280;40363;52.270;10.546;2022-12-18T06:19:00;80359.38;;;-147.06;84.14
54453;BME280;40363;52.270;10.546;2022-12-18T06:21:27;80351.16;;;-147.06;83.56
54453;BME280;40363;52.270;10.546;2022-12-18T06:23:55;80367.59;;;-147.06;83.71
54453;BME280;40363;52.270;10.546;2022-12-18T06:26:21;80369.66;;;-147.06;83.80
54453;BME280;40363;52.270;10.546;2022-12-18T06:28:47;80344.97;;;-147.06;83.87
54453;BME280;40363;52.270;10.546;2022-12-18T06:31:14;80353.19;;;-147.06;83.60
54453;BME280;40363;52.270;10.546;2022-12-18T06:33:40;80342.91;;;-147.06;83.25
54453;BME280;40363;52.270;10.546;2022-12-18T06:36:08;80332.63;;;-147.06;83.18
54453;BME280;40363;52.270;10.546;2022-12-18T06:38:36;80347.03;;;-147.06;82.89
54453;BME280;40363;52.270;10.546;2022-12-18T06:41:07;80342.91;;;-147.06;83.33
54453;BME280;40363;52.270;10.546;2022-12-18T06:43:33;80342.91;;;-147.06;83.37
54453;BME280;40363;52.270;10.546;2022-12-18T06:46:00;80355.25;;;-147.06;83.09
54453;BME280;40363;52.270;10.546;2022-12-18T06:48:26;80367.59;;;-147.06;83.31
54453;BME280;40363;52.270;10.546;2022-12-18T06:50:53;80363.50;;;-147.06;83.51
54453;BME280;40363;52.270;10.546;2022-12-18T06:53:19;80367.59;;;-147.06;83.41
54453;BME280;40363;52.270;10.546;2022-12-18T06:55:45;80369.66;;;-147.06;83.53
54453;BME280;40363;52.270;10.546;2022-12-18T06:58:13;80375.84;;;-147.06;84.09
54453;BME280;40363;52.270;10.546;2022-12-18T07:00:40;80379.94;;;-147.06;84.09
54453;BME280;40363;52.270;10.546;2022-12-18T07:03:06;80388.19;;;-147.06;84.09
54453;BME280;40363;52.270;10.546;2022-12-18T07:05:32;80396.41;;;-147.06;84.01
54453;BME280;40363;52.270;10.546;2022-12-18T07:07:59;80406.69;;;-147.06;84.06
54453;BME280;40363;52.270;10.546;2022-12-18T07:10:25;80392.28;;;-147.06;83.92
54453;BME280;40363;52.270;10.546;2022-12-18T07:12:52;80396.41;;;-147.06;83.72
54453;BME280;40363;52.270;10.546;2022-12-18T07:15:19;80388.19;;;-147.06;85.09
54453;BME280;40363;52.270;10.546;2022-12-18T07:17:46;80421.09;;;-147.06;84.92
54453;BME280;40363;52.270;10.546;2022-12-18T07:20:12;80421.09;;;-147.06;85.14
54453;BME280;40363;52.270;10.546;2022-12-18T07:22:39;80419.03;;;-147.06;84.69
54453;BME280;40363;52.270;10.546;2022-12-18T07:25:06;80421.09;;;-147.06;84.63
54453;BME280;40363;52.270;10.546;2022-12-18T07:27:33;80429.31;;;-147.06;84.40
54453;BME280;40363;52.270;10.546;2022-12-18T07:30:00;80421.09;;;-147.06;84.24
54453;BME280;40363;52.270;10.546;2022-12-18T07:32:27;80423.16;;;-147.06;83.87
54453;BME280;40363;52.270;10.546;2022-12-18T07:34:54;80412.88;;;-147.06;83.51
54453;BME280;40363;52.270;10.546;2022-12-18T07:37:20;80421.09;;;-147.06;83.79
54453;BME280;40363;52.270;10.546;2022-12-18T07:39:46;80433.44;;;-147.06;83.44
54453;BME280;40363;52.270;10.546;2022-12-18T07:42:13;80427.28;;;-147.06;83.53
54453;BME280;40363;52.270;10.546;2022-12-18T07:44:58;80441.66;;;-147.06;83.58
54453;BME280;40363;52.270;10.546;2022-12-18T07:47:24;80449.91;;;-147.06;83.52
54453;BME280;40363;52.270;10.546;2022-12-18T07:49:52;80441.66;;;-147.06;83.41
54453;BME280;40363;52.270;10.546;2022-12-18T07:52:19;80445.78;;;-147.06;83.21
54453;BME280;40363;52.270;10.546;2022-12-18T07:54:45;80449.91;;;-147.06;83.33
54453;BME280;40363;52.270;10.546;2022-12-18T07:57:14;80474.59;;;-147.06;83.63
54453;BME280;40363;52.270;10.546;2022-12-18T07:59:40;80462.25;;;-147.06;83.51
54453;BME280;40363;52.270;10.546;2022-12-18T08:02:06;80472.53;;;-147.06;83.53
54453;BME280;40363;52.270;10.546;2022-12-18T08:04:33;80466.34;;;-147.06;83.67
54453;BME280;40363;52.270;10.546;2022-12-18T08:07:01;80449.91;;;-147.06;83.21
54453;BME280;40363;52.270;10.546;2022-12-18T08:09:30;80451.97;;;-147.06;83.47
54453;BME280;40363;52.270;10.546;2022-12-18T08:11:57;80458.13;;;-147.06;82.62
54453;BME280;40363;52.270;10.546;2022-12-18T08:14:23;80445.78;;;-147.06;83.33
54453;BME280;40363;52.270;10.546;2022-12-18T08:16:50;80425.22;;;-147.06;83.07
54453;BME280;40363;52.270;10.546;2022-12-18T08:19:16;80408.75;;;-147.06;83.23
54453;BME280;40363;52.270;10.546;2022-12-18T08:21:42;80396.41;;;-147.06;82.86
54453;BME280;40363;52.270;10.546;2022-12-18T08:24:10;80379.94;;;-147.06;83.25
54453;BME280;40363;52.270;10.546;2022-12-18T08:26:37;80375.84;;;-147.06;83.19
54453;BME280;40363;52.270;10.546;2022-12-18T08:29:03;80363.50;;;-147.06;83.71
54453;BME280;40363;52.270;10.546;2022-12-18T08:31:30;80340.84;;;-147.06;83.33
54453;BME280;40363;52.270;10.546;2022-12-18T08:33:57;80303.81;;;-147.06;83.10
54453;BME280;40363;52.270;10.546;2022-12-18T08:36:23;80264.75;;;-147.06;81.86
54453;BME280;40363;52.270;10.546;2022-12-18T08:38:50;80256.50;;;-147.06;81.07
54453;BME280;40363;52.270;10.546;2022-12-18T08:41:18;80215.38;;;-147.06;80.46
54453;BME280;40363;52.270;10.546;2022-12-18T08:43:45;80198.91;;;-147.06;79.97
54453;BME280;40363;52.270;10.546;2022-12-18T08:46:31;80174.22;;;-147.06;79.46
54453;BME280;40363;52.270;10.546;2022-12-18T08:48:58;80124.84;;;-147.06;77.87
54453;BME280;40363;52.270;10.546;2022-12-18T08:51:24;80100.16;;;-147.06;77.25
54453;BME280;40363;52.270;10.546;2022-12-18T08:53:51;80083.69;;;-147.06;76.66
54453;BME280;40363;52.270;10.546;2022-12-18T08:56:19;79984.94;;;-147.06;74.91
54453;BME280;40363;52.270;10.546;2022-12-18T08:58:45;79941.75;;;-147.06;72.86
54453;BME280;40363;52.270;10.546;2022-12-18T09:01:12;79982.91;;;-147.06;72.88
54453;BME280;40363;52.270;10.546;2022-12-18T09:03:38;80005.53;;;-147.06;72.11
54453;BME280;40363;52.270;10.546;2022-12-18T09:06:05;79993.19;;;-147.06;72.07
54453;BME280;40363;52.270;10.546;2022-12-18T09:08:32;79923.25;;;-147.06;71.28
54453;BME280;40363;52.270;10.546;2022-12-18T09:10:58;79894.44;;;-147.06;70.08
54453;BME280;40363;52.270;10.546;2022-12-18T09:13:26;79910.91;;;-147.06;70.02
54453;BME280;40363;52.270;10.546;2022-12-18T09:15:53;79906.78;;;-147.06;70.09
54453;BME280;40363;52.270;10.546;2022-12-18T09:18:21;79915.00;;;-147.06;69.82
54453;BME280;40363;52.270;10.546;2022-12-18T09:20:48;79947.94;;;-147.06;71.38
54453;BME280;40363;52.270;10.546;2022-12-18T09:23:15;79915.00;;;-147.06;70.53
54453;BME280;40363;52.270;10.546;2022-12-18T09:25:41;79947.94;;;-147.06;72.39
54453;BME280;40363;52.270;10.546;2022-12-18T09:28:10;79976.72;;;-147.06;73.66
54453;BME280;40363;52.270;10.546;2022-12-18T09:30:41;79927.34;;;-147.06;72.00
54453;BME280;40363;52.270;10.546;2022-12-18T09:33:08;79873.88;;;-147.06;71.91
54453;BME280;40363;52.270;10.546;2022-12-18T09:35:35;79906.78;;;-147.06;71.44
54453;BME280;40363;52.270;10.546;2022-12-18T09:38:02;79939.69;;;-147.06;72.97
54453;BME280;40363;52.270;10.546;2022-12-18T09:40:29;79906.78;;;-147.06;73.09
54453;BME280;40363;52.270;10.546;2022-12-18T09:42:58;79947.94;;;-147.06;73.87
54453;BME280;40363;52.270;10.546;2022-12-18T09:45:26;79927.34;;;-147.06;73.52
54453;BME280;40363;52.270;10.546;2022-12-18T09:47:55;79915.00;;;-147.06;74.44
54453;BME280;40363;52.270;10.546;2022-12-18T09:50:23;79927.34;;;-147.06;75.12
54453;BME280;40363;52.270;10.546;2022-12-18T09:52:51;79898.56;;;-147.06;75.16
54453;BME280;40363;52.270;10.546;2022-12-18T09:55:20;79941.75;;;-147.06;76.12
54453;BME280;40363;52.270;10.546;2022-12-18T09:57:49;79952.03;;;-147.06;76.78
54453;BME280;40363;52.270;10.546;2022-12-18T10:00:17;79976.72;;;-147.06;78.61
54453;BME280;40363;52.270;10.546;2022-12-18T10:02:45;79984.94;;;-147.06;79.00
54453;BME280;40363;52.270;10.546;2022-12-18T10:05:14;79991.13;;;-147.06;79.41
54453;BME280;40363;52.270;10.546;2022-12-18T10:07:53;80001.41;;;-147.06;79.51
54453;BME280;40363;52.270;10.546;2022-12-18T10:10:25;79976.72;;;-147.06;79.68
54453;BME280;40363;52.270;10.546;2022-12-18T10:12:55;79931.47;;;-147.06;79.46
54453;BME280;40363;52.270;10.546;2022-12-18T10:15:27;79908.84;;;-147.06;78.65
54453;BME280;40363;52.270;10.546;2022-12-18T10:17:57;79898.56;;;-147.06;77.96
54453;BME280;40363;52.270;10.546;2022-12-18T10:20:33;79906.78;;;-147.06;77.56
54453;BME280;40363;52.270;10.546;2022-12-18T10:23:02;79912.94;;;-147.06;76.85
54453;BME280;40363;52.270;10.546;2022-12-18T10:25:31;79898.56;;;-147.06;76.96
54453;BME280;40363;52.270;10.546;2022-12-18T10:28:06;79880.03;;;-147.06;76.52
54453;BME280;40363;52.270;10.546;2022-12-18T10:30:34;79857.41;;;-147.06;75.63
54453;BME280;40363;52.270;10.546;2022-12-18T10:33:01;79865.63;;;-147.06;75.24
54453;BME280;40363;52.270;10.546;2022-12-18T10:35:28;79828.63;;;-147.06;75.10
54453;BME280;40363;52.270;10.546;2022-12-18T10:38:06;79849.19;;;-147.06;75.40
54453;BME280;40363;52.270;10.546;2022-12-18T10:40:36;79816.28;;;-147.06;75.06
54453;BME280;40363;52.270;10.546;2022-12-18T10:43:13;79832.72;;;-147.06;75.90
54453;BME280;40363;52.270;10.546;2022-12-18T10:45:41;79836.84;;;-147.06;76.39
54453;BME280;40363;52.270;10.546;2022-12-18T10:48:17;79820.38;;;-147.06;76.20
54453;BME280;40363;52.270;10.546;2022-12-18T10:50:45;79818.31;;;-147.06;76.50
54453;BME280;40363;52.270;10.546;2022-12-18T10:53:16;79810.09;;;-147.06;76.93
54453;BME280;40363;52.270;10.546;2022-12-18T10:55:45;79814.22;;;-147.06;77.27
54453;BME280;40363;52.270;10.546;2022-12-18T10:58:23;79775.13;;;-147.06;77.30
54453;BME280;40363;52.270;10.546;2022-12-18T11:01:06;79785.41;;;-147.06;77.82
54453;BME280;40363;52.270;10.546;2022-12-18T11:03:34;79752.50;;;-147.06;77.08
54453;BME280;40363;52.270;10.546;2022-12-18T11:06:02;79766.91;;;-147.06;77.94
54453;BME280;40363;52.270;10.546;2022-12-18T11:08:31;79750.44;;;-147.06;78.00
54453;BME280;40363;52.270;10.546;2022-12-18T11:10:57;79746.31;;;-147.06;77.95
54453;BME280;40363;52.270;10.546;2022-12-18T11:13:24;79746.31;;;-147.06;78.19
54453;BME280;40363;52.270;10.546;2022-12-18T11:15:52;79744.28;;;-147.06;78.39
54453;BME280;40363;52.270;10.546;2022-12-18T11:18:20;79713.41;;;-147.06;78.31
54453;BME280;40363;52.270;10.546;2022-12-18T11:20:51;79742.22;;;-147.06;78.31
54453;BME280;40363;52.270;10.546;2022-12-18T11:23:18;79729.88;;;-147.06;79.38
54453;BME280;40363;52.270;10.546;2022-12-18T11:25:51;79717.53;;;-147.06;79.16
54453;BME280;40363;52.270;10.546;2022-12-18T11:28:26;79684.63;;;-147.06;78.95
54453;BME280;40363;52.270;10.546;2022-12-18T11:31:08;79655.81;;;-147.06;78.59
54453;BME280;40363;52.270;10.546;2022-12-18T11:33:35;79639.38;;;-147.06;78.23
54453;BME280;40363;52.270;10.546;2022-12-18T11:36:04;79664.03;;;-147.06;79.19
54453;BME280;40363;52.270;10.546;2022-12-18T11:38:35;79659.94;;;-147.06;79.66
54453;BME280;40363;52.270;10.546;2022-12-18T11:41:04;79657.88;;;-147.06;79.67
54453;BME280;40363;52.270;10.546;2022-12-18T11:43:33;79643.47;;;-147.06;79.51
54453;BME280;40363;52.270;10.546;2022-12-18T11:46:02;79647.59;;;-147.06;79.38
54453;BME280;40363;52.270;10.546;2022-12-18T11:48:32;79643.47;;;-147.06;79.71
54453;BME280;40363;52.270;10.546;2022-12-18T11:51:00;79627.03;;;-147.06;79.93
54453;BME280;40363;52.270;10.546;2022-12-18T11:53:27;79633.19;;;-147.06;79.68
54453;BME280;40363;52.270;10.546;2022-12-18T11:56:00;79618.78;;;-147.06;79.62
54453;BME280;40363;52.270;10.546;2022-12-18T11:58:42;79606.44;;;-147.06;79.77
54453;BME280;40363;52.270;10.546;2022-12-18T12:01:13;79585.88;;;-147.06;79.25
54453;BME280;40363;52.270;10.546;2022-12-18T12:03:49;79573.53;;;-147.06;79.61
54453;BME280;40363;52.270;10.546;2022-12-18T12:06:18;79557.09;;;-147.06;80.07
54453;BME280;40363;52.270;10.546;2022-12-18T12:08:57;79544.75;;;-147.06;77.79
54453;BME280;40363;52.270;10.546;2022-12-18T12:11:27;79538.56;;;-147.06;78.43
54453;BME280;40363;52.270;10.546;2022-12-18T12:14:05;79511.84;;;-147.06;77.85
54453;BME280;40363;52.270;10.546;2022-12-18T12:16:37;79511.84;;;-147.06;76.72
54453;BME280;40363;52.270;10.546;2022-12-18T12:19:10;79499.50;;;-147.06;75.19
54453;BME280;40363;52.270;10.546;2022-12-18T12:21:42;79507.72;;;-147.06;74.33
54453;BME280;40363;52.270;10.546;2022-12-18T12:24:13;79452.19;;;-147.06;74.24
54453;BME280;40363;52.270;10.546;2022-12-18T12:26:42;79470.69;;;-147.06;74.45
54453;BME280;40363;52.270;10.546;2022-12-18T12:29:18;79466.59;;;-147.06;74.47
54453;BME280;40363;52.270;10.546;2022-12-18T12:31:58;79462.47;;;-147.06;74.06
54453;BME280;40363;52.270;10.546;2022-12-18T12:34:31;79466.59;;;-147.06;74.04
54453;BME280;40363;52.270;10.546;2022-12-18T12:37:06;79470.69;;;-147.06;75.11